sensor_id;sensor_type;location;lat;lon;timestamp;pressure;altitude;pressure_sealevel;temperature;humidity
29433;BME280;16405;53.964;13.448;2022-08-19T00:01:34;100666.75;;;19.97;100.00
29433;BME280;16405;53.964;13.448;2022-08-19T00:04:05;100662.28;;;19.98;100.00
29433;BME280;16405;53.964;13.448;2022-08-19T00:06:36;100656.06;;;19.97;100.00
29433;BME280;16405;53.964;13.448;2022-08-19T00:09:06;100659.97;;;19.93;100.00
29433;BME280;16405;53.964;13.448;2022-08-19T00:11:33;100659.13;;;19.93;100.00
29433;BME280;16405;53.964;13.448;2022-08-19T00:14:04;100657.31;;;19.93;100.00
29433;BME280;16405;53.964;13.448;2022-08-19T00:16:31;100659.84;;;19.95;100.00
29433;BME280;16405;53.964;13.448;2022-08-19T00:18:57;100657.72;;;19.88;100.00
29433;BME280;16405;53.964;13.448;2022-08-19T00:21:27;100669.53;;;19.86;100.00
29433;BME280;16405;53.964;13.448;2022-08-19T00:23:54;100660.78;;;19.84;100.00
29433;BME280;16405;53.964;13.448;2022-08-19T00:26:27;100658.53;;;19.79;100.00
29433;BME280;16405;53.964;13.448;2022-08-19T00:28:54;100650.78;;;19.76;100.00
29433;BME280;16405;53.964;13.448;2022-08-19T00:31:22;100653.97;;;19.70;100.00
29433;BME280;16405;53.964;13.448;2022-08-19T00:33:48;100661.25;;;19.68;100.00
29433;BME280;16405;53.964;13.448;2022-08-19T00:36:16;100665.88;;;19.66;100.00
29433;BME280;16405;53.964;13.448;2022-08-19T00:38:42;100671.34;;;19.64;100.00
29433;BME280;16405;53.964;13.448;2022-08-19T00:41:17;100672.44;;;19.62;100.00
29433;BME280;16405;53.964;13.448;2022-08-19T00:44:09;100666.66;;;19.57;100.00
29433;BME280;16405;53.964;13.448;2022-08-19T00:46:38;100664.56;;;19.39;100.00
29433;BME280;16405;53.964;13.448;2022-08-19T00:49:33;100666.06;;;19.32;100.00
29433;BME280;16405;53.964;13.448;2022-08-19T00:52:08;100660.28;;;19.27;100.00
29433;BME280;16405;53.964;13.448;2022-08-19T00:54:37;100656.88;;;19.25;100.00
29433;BME280;16405;53.964;13.448;2022-08-19T00:57:08;100653.38;;;19.24;100.00
29433;BME280;16405;53.964;13.448;2022-08-19T00:59:38;100649.84;;;19.24;100.00
29433;BME280;16405;53.964;13.448;2022-08-19T01:02:05;100652.78;;;19.21;100.00
29433;BME280;16405;53.964;13.448;2022-08-19T01:04:31;100648.94;;;19.14;100.00
29433;BME280;16405;53.964;13.448;2022-08-19T01:06:58;100647.56;;;19.19;100.00
29433;BME280;16405;53.964;13.448;2022-08-19T01:09:24;100650.72;;;19.24;100.00
29433;BME280;16405;53.964;13.448;2022-08-19T01:11:53;100644.09;;;19.29;100.00
29433;BME280;16405;53.964;13.448;2022-08-19T01:14:20;100652.97;;;19.29;100.00
29433;BME280;16405;53.964;13.448;2022-08-19T01:16:46;100641.00;;;19.23;100.00
29433;BME280;16405;53.964;13.448;2022-08-19T01:19:30;100647.78;;;19.27;100.00
29433;BME280;16405;53.964;13.448;2022-08-19T01:24:58;100650.03;;;19.32;100.00
29433;BME280;16405;53.964;13.448;2022-08-19T01:27:24;100650.88;;;19.33;100.00
29433;BME280;16405;53.964;13.448;2022-08-19T01:29:49;100649.19;;;19.32;100.00
29433;BME280;16405;53.964;13.448;2022-08-19T01:32:17;100660.72;;;19.32;100.00
29433;BME280;16405;53.964;13.448;2022-08-19T01:34:49;100664.94;;;19.35;100.00
29433;BME280;16405;53.964;13.448;2022-08-19T01:37:15;100659.44;;;19.26;100.00
29433;BME280;16405;53.964;13.448;2022-08-19T01:39:42;100657.34;;;19.30;100.00
29433;BME280;16405;53.964;13.448;2022-08-19T01:42:09;100663.78;;;19.27;100.00
29433;BME280;16405;53.964;13.448;2022-08-19T01:44:40;100656.41;;;19.20;100.00
29433;BME280;16405;53.964;13.448;2022-08-19T01:47:07;100654.28;;;19.14;100.00
29433;BME280;16405;53.964;13.448;2022-08-19T01:49:36;100657.78;;;19.14;100.00
29433;BME280;16405;53.964;13.448;2022-08-19T01:52:04;100663.97;;;19.15;100.00
29433;BME280;16405;53.964;13.448;2022-08-19T01:54:31;100658.03;;;19.11;100.00
29433;BME280;16405;53.964;13.448;2022-08-19T01:57:20;100661.69;;;19.10;100.00
29433;BME280;16405;53.964;13.448;2022-08-19T01:59:46;100660.34;;;19.16;100.00
29433;BME280;16405;53.964;13.448;2022-08-19T02:02:12;100656.94;;;19.14;100.00
29433;BME280;16405;53.964;13.448;2022-08-19T02:04:47;100654.72;;;19.19;100.00
29433;BME280;16405;53.964;13.448;2022-08-19T02:07:13;100662.47;;;19.22;100.00
29433;BME280;16405;53.964;13.448;2022-08-19T02:09:39;100658.84;;;19.23;100.00
29433;BME280;16405;53.964;13.448;2022-08-19T02:12:07;100667.09;;;19.20;100.00
29433;BME280;16405;53.964;13.448;2022-08-19T02:14:35;100669.75;;;19.20;100.00
29433;BME280;16405;53.964;13.448;2022-08-19T02:17:02;100674.53;;;19.16;100.00
29433;BME280;16405;53.964;13.448;2022-08-19T02:19:28;100680.69;;;19.17;100.00
29433;BME280;16405;53.964;13.448;2022-08-19T02:21:54;100683.25;;;19.18;100.00
29433;BME280;16405;53.964;13.448;2022-08-19T02:24:20;100679.19;;;19.24;100.00
29433;BME280;16405;53.964;13.448;2022-08-19T02:26:46;100676.81;;;19.21;100.00
29433;BME280;16405;53.964;13.448;2022-08-19T02:29:19;100676.53;;;19.24;100.00
29433;BME280;16405;53.964;13.448;2022-08-19T02:31:45;100680.91;;;19.25;100.00
29433;BME280;16405;53.964;13.448;2022-08-19T02:34:11;100683.31;;;19.28;100.00
29433;BME280;16405;53.964;13.448;2022-08-19T02:36:37;100681.47;;;19.29;100.00
29433;BME280;16405;53.964;13.448;2022-08-19T02:39:10;100669.97;;;19.28;100.00
29433;BME280;16405;53.964;13.448;2022-08-19T02:41:36;100671.91;;;19.26;100.00
29433;BME280;16405;53.964;13.448;2022-08-19T02:44:03;100673.75;;;19.25;100.00
29433;BME280;16405;53.964;13.448;2022-08-19T02:46:37;100677.53;;;19.23;100.00
29433;BME280;16405;53.964;13.448;2022-08-19T02:49:06;100672.06;;;19.24;100.00
29433;BME280;16405;53.964;13.448;2022-08-19T02:51:38;100663.19;;;19.24;100.00
29433;BME280;16405;53.964;13.448;2022-08-19T02:54:08;100660.06;;;19.19;100.00
29433;BME280;16405;53.964;13.448;2022-08-19T02:56:36;100664.56;;;19.18;100.00
29433;BME280;16405;53.964;13.448;2022-08-19T02:59:06;100673.13;;;19.22;100.00
29433;BME280;16405;53.964;13.448;2022-08-19T03:01:34;100681.88;;;19.24;100.00
29433;BME280;16405;53.964;13.448;2022-08-19T03:04:04;100681.63;;;19.27;100.00
29433;BME280;16405;53.964;13.448;2022-08-19T03:06:31;100676.03;;;19.30;100.00
29433;BME280;16405;53.964;13.448;2022-08-19T03:08:57;100675.78;;;19.33;100.00
29433;BME280;16405;53.964;13.448;2022-08-19T03:11:30;100683.25;;;19.39;100.00
29433;BME280;16405;53.964;13.448;2022-08-19T03:13:58;100681.78;;;19.46;100.00
29433;BME280;16405;53.964;13.448;2022-08-19T03:16:26;100681.50;;;19.50;100.00
29433;BME280;16405;53.964;13.448;2022-08-19T03:18:55;100674.69;;;19.57;100.00
29433;BME280;16405;53.964;13.448;2022-08-19T03:21:29;100682.72;;;19.66;100.00
29433;BME280;16405;53.964;13.448;2022-08-19T03:24:00;100675.34;;;19.70;100.00
29433;BME280;16405;53.964;13.448;2022-08-19T03:26:27;100677.75;;;19.73;100.00
29433;BME280;16405;53.964;13.448;2022-08-19T03:29:00;100670.88;;;19.80;100.00
29433;BME280;16405;53.964;13.448;2022-08-19T03:31:27;100678.78;;;19.82;100.00
29433;BME280;16405;53.964;13.448;2022-08-19T03:33:53;100681.03;;;19.86;100.00
29433;BME280;16405;53.964;13.448;2022-08-19T03:36:29;100678.97;;;19.90;100.00
29433;BME280;16405;53.964;13.448;2022-08-19T03:38:58;100665.38;;;19.72;100.00
29433;BME280;16405;53.964;13.448;2022-08-19T03:41:32;100662.91;;;19.69;100.00
29433;BME280;16405;53.964;13.448;2022-08-19T03:43:59;100668.06;;;19.72;100.00
29433;BME280;16405;53.964;13.448;2022-08-19T03:46:29;100675.66;;;19.77;100.00
29433;BME280;16405;53.964;13.448;2022-08-19T03:48:58;100672.84;;;19.78;100.00
29433;BME280;16405;53.964;13.448;2022-08-19T03:51:32;100682.44;;;19.81;100.00
29433;BME280;16405;53.964;13.448;2022-08-19T03:54:07;100669.63;;;19.84;100.00
29433;BME280;16405;53.964;13.448;2022-08-19T03:56:39;100673.75;;;19.88;100.00
29433;BME280;16405;53.964;13.448;2022-08-19T03:59:08;100681.50;;;19.92;100.00
29433;BME280;16405;53.964;13.448;2022-08-19T04:01:35;100681.22;;;19.95;100.00
29433;BME280;16405;53.964;13.448;2022-08-19T04:04:01;100676.00;;;19.93;100.00
29433;BME280;16405;53.964;13.448;2022-08-19T04:06:31;100676.56;;;19.87;100.00
29433;BME280;16405;53.964;13.448;2022-08-19T04:09:03;100681.75;;;19.88;100.00
29433;BME280;16405;53.964;13.448;2022-08-19T04:11:41;100686.13;;;19.90;100.00
29433;BME280;16405;53.964;13.448;2022-08-19T04:14:08;100693.16;;;19.91;100.00
29433;BME280;16405;53.964;13.448;2022-08-19T04:16:36;100696.81;;;19.90;100.00
29433;BME280;16405;53.964;13.448;2022-08-19T04:19:05;100705.41;;;19.93;100.00
29433;BME280;16405;53.964;13.448;2022-08-19T04:21:32;100705.28;;;19.95;100.00
29433;BME280;16405;53.964;13.448;2022-08-19T04:23:58;100705.28;;;19.95;100.00
29433;BME280;16405;53.964;13.448;2022-08-19T04:26:28;100724.25;;;19.92;100.00
29433;BME280;16405;53.964;13.448;2022-08-19T04:28:58;100728.03;;;19.89;100.00
29433;BME280;16405;53.964;13.448;2022-08-19T04:31:29;100734.47;;;19.86;100.00
29433;BME280;16405;53.964;13.448;2022-08-19T04:33:58;100754.91;;;19.87;100.00
29433;BME280;16405;53.964;13.448;2022-08-19T04:36:31;100754.06;;;19.87;100.00
29433;BME280;16405;53.964;13.448;2022-08-19T04:39:04;100754.06;;;19.87;100.00
29433;BME280;16405;53.964;13.448;2022-08-19T04:41:30;100742.09;;;19.91;100.00
29433;BME280;16405;53.964;13.448;2022-08-19T04:44:15;100746.47;;;19.92;100.00
29433;BME280;16405;53.964;13.448;2022-08-19T04:46:45;100745.25;;;19.96;100.00
29433;BME280;16405;53.964;13.448;2022-08-19T04:49:16;100733.44;;;19.99;100.00
29433;BME280;16405;53.964;13.448;2022-08-19T04:51:45;100746.69;;;20.00;100.00
29433;BME280;16405;53.964;13.448;2022-08-19T04:54:18;100755.41;;;20.02;100.00
29433;BME280;16405;53.964;13.448;2022-08-19T04:56:49;100757.94;;;20.04;100.00
29433;BME280;16405;53.964;13.448;2022-08-19T04:59:17;100754.28;;;20.05;100.00
29433;BME280;16405;53.964;13.448;2022-08-19T05:02:37;100741.88;;;20.04;100.00
29433;BME280;16405;53.964;13.448;2022-08-19T05:05:17;100756.13;;;20.04;100.00
29433;BME280;16405;53.964;13.448;2022-08-19T05:07:58;100742.75;;;20.04;100.00
29433;BME280;16405;53.964;13.448;2022-08-19T05:10:38;100736.44;;;20.05;100.00
29433;BME280;16405;53.964;13.448;2022-08-19T05:13:18;100734.75;;;20.04;100.00
29433;BME280;16405;53.964;13.448;2022-08-19T05:15:56;100731.06;;;20.05;100.00
29433;BME280;16405;53.964;13.448;2022-08-19T05:18:23;100729.25;;;20.06;100.00
29433;BME280;16405;53.964;13.448;2022-08-19T05:21:14;100737.25;;;20.06;100.00
29433;BME280;16405;53.964;13.448;2022-08-19T05:23:58;100742.38;;;20.09;100.00
29433;BME280;16405;53.964;13.448;2022-08-19T05:26:39;100745.03;;;20.09;100.00
29433;BME280;16405;53.964;13.448;2022-08-19T05:29:19;100749.38;;;20.10;100.00
29433;BME280;16405;53.964;13.448;2022-08-19T05:31:47;100744.31;;;20.07;100.00
29433;BME280;16405;53.964;13.448;2022-08-19T05:34:16;100740.81;;;20.06;100.00
29433;BME280;16405;53.964;13.448;2022-08-19T05:36:44;100744.31;;;20.07;100.00
29433;BME280;16405;53.964;13.448;2022-08-19T05:39:19;100739.94;;;20.06;100.00
29433;BME280;16405;53.964;13.448;2022-08-19T05:41:49;100735.47;;;20.06;100.00
29433;BME280;16405;53.964;13.448;2022-08-19T05:44:17;100740.66;;;20.08;100.00
29433;BME280;16405;53.964;13.448;2022-08-19T05:46:48;100736.31;;;20.07;100.00
29433;BME280;16405;53.964;13.448;2022-08-19T05:49:15;100730.94;;;20.07;100.00
29433;BME280;16405;53.964;13.448;2022-08-19T05:51:42;100727.28;;;20.08;100.00
29433;BME280;16405;53.964;13.448;2022-08-19T05:54:08;100724.63;;;20.08;100.00
29433;BME280;16405;53.964;13.448;2022-08-19T05:56:39;100724.50;;;20.10;100.00
29433;BME280;16405;53.964;13.448;2022-08-19T05:59:09;100718.63;;;19.95;100.00
29433;BME280;16405;53.964;13.448;2022-08-19T06:01:38;100729.34;;;19.95;100.00
29433;BME280;16405;53.964;13.448;2022-08-19T06:04:07;100726.13;;;20.01;100.00
29433;BME280;16405;53.964;13.448;2022-08-19T06:06:36;100719.56;;;20.05;100.00
29433;BME280;16405;53.964;13.448;2022-08-19T06:09:05;100716.59;;;20.08;100.00
29433;BME280;16405;53.964;13.448;2022-08-19T06:14:10;100699.13;;;20.04;100.00
29433;BME280;16405;53.964;13.448;2022-08-19T06:16:42;100696.50;;;19.83;100.00
29433;BME280;16405;53.964;13.448;2022-08-19T06:19:13;100706.91;;;19.86;100.00
29433;BME280;16405;53.964;13.448;2022-08-19T06:21:41;100710.91;;;19.92;100.00
29433;BME280;16405;53.964;13.448;2022-08-19T06:24:11;100716.97;;;19.94;100.00
29433;BME280;16405;53.964;13.448;2022-08-19T06:26:40;100716.25;;;19.92;100.00
29433;BME280;16405;53.964;13.448;2022-08-19T06:29:12;100716.25;;;19.92;100.00
29433;BME280;16405;53.964;13.448;2022-08-19T06:31:47;100715.97;;;19.95;100.00
29433;BME280;16405;53.964;13.448;2022-08-19T06:34:18;100712.59;;;19.93;100.00
29433;BME280;16405;53.964;13.448;2022-08-19T06:36:48;100722.03;;;19.97;100.00
29433;BME280;16405;53.964;13.448;2022-08-19T06:39:25;100732.44;;;20.00;100.00
29433;BME280;16405;53.964;13.448;2022-08-19T06:41:55;100727.81;;;20.02;100.00
29433;BME280;16405;53.964;13.448;2022-08-19T06:44:29;100732.19;;;20.03;100.00
29433;BME280;16405;53.964;13.448;2022-08-19T06:47:05;100736.16;;;20.08;100.00
29433;BME280;16405;53.964;13.448;2022-08-19T06:49:31;100737.13;;;20.07;100.00
29433;BME280;16405;53.964;13.448;2022-08-19T06:51:58;100732.38;;;20.11;100.00
29433;BME280;16405;53.964;13.448;2022-08-19T06:54:25;100739.41;;;20.12;100.00
29433;BME280;16405;53.964;13.448;2022-08-19T06:56:54;100743.63;;;20.15;100.00
29433;BME280;16405;53.964;13.448;2022-08-19T06:59:47;100750.94;;;20.13;100.00
29433;BME280;16405;53.964;13.448;2022-08-19T07:02:37;100764.28;;;20.03;100.00
29433;BME280;16405;53.964;13.448;2022-08-19T07:05:46;100769.94;;;19.88;100.00
29433;BME280;16405;53.964;13.448;2022-08-19T07:08:13;100774.53;;;19.98;100.00
29433;BME280;16405;53.964;13.448;2022-08-19T07:10:44;100763.16;;;20.05;100.00
29433;BME280;16405;53.964;13.448;2022-08-19T07:13:17;100767.97;;;20.12;100.00
29433;BME280;16405;53.964;13.448;2022-08-19T07:15:43;100774.16;;;20.12;100.00
29433;BME280;16405;53.964;13.448;2022-08-19T07:18:12;100771.50;;;20.12;100.00
29433;BME280;16405;53.964;13.448;2022-08-19T07:20:43;100767.84;;;20.13;100.00
29433;BME280;16405;53.964;13.448;2022-08-19T07:23:09;100773.72;;;20.07;100.00
29433;BME280;16405;53.964;13.448;2022-08-19T07:25:37;100776.91;;;20.01;100.00
29433;BME280;16405;53.964;13.448;2022-08-19T07:28:03;100775.09;;;20.01;100.00
29433;BME280;16405;53.964;13.448;2022-08-19T07:30:35;100765.78;;;19.96;100.00
29433;BME280;16405;53.964;13.448;2022-08-19T07:33:01;100751.63;;;19.84;100.00
29433;BME280;16405;53.964;13.448;2022-08-19T07:35:27;100758.00;;;19.72;100.00
29433;BME280;16405;53.964;13.448;2022-08-19T07:37:53;100768.31;;;19.76;100.00
29433;BME280;16405;53.964;13.448;2022-08-19T07:40:22;100759.19;;;19.79;100.00
29433;BME280;16405;53.964;13.448;2022-08-19T07:42:50;100758.59;;;19.75;100.00
29433;BME280;16405;53.964;13.448;2022-08-19T07:45:16;100743.34;;;19.66;100.00
29433;BME280;16405;53.964;13.448;2022-08-19T07:47:42;100731.50;;;19.47;100.00
29433;BME280;16405;53.964;13.448;2022-08-19T07:50:10;100743.75;;;19.50;100.00
29433;BME280;16405;53.964;13.448;2022-08-19T07:52:37;100749.78;;;19.63;100.00
29433;BME280;16405;53.964;13.448;2022-08-19T07:55:07;100747.47;;;19.70;100.00
29433;BME280;16405;53.964;13.448;2022-08-19T07:57:33;100745.97;;;19.77;100.00
29433;BME280;16405;53.964;13.448;2022-08-19T07:59:59;100749.06;;;19.82;100.00
29433;BME280;16405;53.964;13.448;2022-08-19T08:02:25;100746.72;;;19.68;100.00
29433;BME280;16405;53.964;13.448;2022-08-19T08:04:51;100750.59;;;19.75;100.00
29433;BME280;16405;53.964;13.448;2022-08-19T08:07:38;100744.72;;;19.81;100.00
29433;BME280;16405;53.964;13.448;2022-08-19T08:10:25;100736.72;;;19.81;100.00
29433;BME280;16405;53.964;13.448;2022-08-19T08:12:53;100734.47;;;19.86;100.00
29433;BME280;16405;53.964;13.448;2022-08-19T08:15:22;100746.34;;;19.94;100.00
29433;BME280;16405;53.964;13.448;2022-08-19T08:17:48;100746.09;;;19.97;100.00
29433;BME280;16405;53.964;13.448;2022-08-19T08:20:14;100748.66;;;20.08;100.00
29433;BME280;16405;53.964;13.448;2022-08-19T08:22:49;100736.31;;;20.07;100.00
29433;BME280;16405;53.964;13.448;2022-08-19T08:25:35;100733.94;;;20.14;100.00
29433;BME280;16405;53.964;13.448;2022-08-19T08:28:02;100741.16;;;20.23;100.00
29433;BME280;16405;53.964;13.448;2022-08-19T08:30:30;100730.50;;;20.33;100.00
29433;BME280;16405;53.964;13.448;2022-08-19T08:32:58;100720.84;;;20.51;100.00
29433;BME280;16405;53.964;13.448;2022-08-19T08:35:30;100712.91;;;20.61;100.00
29433;BME280;16405;53.964;13.448;2022-08-19T08:38:08;100711.53;;;20.76;100.00
29433;BME280;16405;53.964;13.448;2022-08-19T08:40:52;100706.63;;;20.91;100.00
29433;BME280;16405;53.964;13.448;2022-08-19T08:43:33;100709.88;;;21.04;100.00
29433;BME280;16405;53.964;13.448;2022-08-19T08:46:09;100706.50;;;21.22;100.00
29433;BME280;16405;53.964;13.448;2022-08-19T08:51:37;100702.97;;;21.50;100.00
29433;BME280;16405;53.964;13.448;2022-08-19T08:54:14;100690.56;;;21.69;100.00
29433;BME280;16405;53.964;13.448;2022-08-19T08:56:44;100685.03;;;21.70;100.00
29433;BME280;16405;53.964;13.448;2022-08-19T09:01:49;100677.22;;;21.97;100.00
29433;BME280;16405;53.964;13.448;2022-08-19T09:04:16;100699.88;;;22.12;100.00
29433;BME280;16405;53.964;13.448;2022-08-19T09:09:50;100703.38;;;22.12;100.00
29433;BME280;16405;53.964;13.448;2022-08-19T09:12:35;100709.69;;;22.31;100.00
29433;BME280;16405;53.964;13.448;2022-08-19T09:15:13;100704.41;;;22.67;100.00
29433;BME280;16405;53.964;13.448;2022-08-19T09:17:40;100707.22;;;22.93;100.00
29433;BME280;16405;53.964;13.448;2022-08-19T09:20:22;100709.16;;;23.19;100.00
29433;BME280;16405;53.964;13.448;2022-08-19T09:22:54;100704.16;;;23.24;100.00
29433;BME280;16405;53.964;13.448;2022-08-19T09:25:25;100704.19;;;23.42;100.00
29433;BME280;16405;53.964;13.448;2022-08-19T09:27:56;100713.63;;;23.46;100.00
29433;BME280;16405;53.964;13.448;2022-08-19T09:30:30;100710.81;;;23.55;100.00
29433;BME280;16405;53.964;13.448;2022-08-19T09:33:06;100704.66;;;23.37;100.00
29433;BME280;16405;53.964;13.448;2022-08-19T09:35:38;100697.72;;;23.34;100.00
29433;BME280;16405;53.964;13.448;2022-08-19T09:38:07;100695.94;;;23.43;100.00
29433;BME280;16405;53.964;13.448;2022-08-19T09:40:33;100708.31;;;23.36;100.00
29433;BME280;16405;53.964;13.448;2022-08-19T09:42:59;100711.91;;;23.45;100.00
29433;BME280;16405;53.964;13.448;2022-08-19T09:45:33;100711.75;;;23.46;100.00
29433;BME280;16405;53.964;13.448;2022-08-19T09:48:03;100714.53;;;23.54;100.00
29433;BME280;16405;53.964;13.448;2022-08-19T09:50:32;100703.78;;;23.37;100.00
29433;BME280;16405;53.964;13.448;2022-08-19T09:53:03;100699.09;;;23.39;100.00
29433;BME280;16405;53.964;13.448;2022-08-19T09:55:29;100696.50;;;23.29;100.00
29433;BME280;16405;53.964;13.448;2022-08-19T09:58:05;100702.72;;;23.29;100.00
29433;BME280;16405;53.964;13.448;2022-08-19T10:00:49;100699.56;;;23.34;100.00
29433;BME280;16405;53.964;13.448;2022-08-19T10:03:15;100704.19;;;23.06;100.00
29433;BME280;16405;53.964;13.448;2022-08-19T10:08:59;100708.44;;;22.81;100.00
29433;BME280;16405;53.964;13.448;2022-08-19T10:11:26;100705.84;;;22.61;100.00
29433;BME280;16405;53.964;13.448;2022-08-19T10:14:01;100700.50;;;22.61;100.00
29433;BME280;16405;53.964;13.448;2022-08-19T10:16:28;100705.47;;;22.56;100.00
29433;BME280;16405;53.964;13.448;2022-08-19T10:19:12;100719.72;;;22.57;100.00
29433;BME280;16405;53.964;13.448;2022-08-19T10:29:38;100713.53;;;22.56;100.00
29433;BME280;16405;53.964;13.448;2022-08-19T10:32:19;100720.66;;;22.65;100.00
29433;BME280;16405;53.964;13.448;2022-08-19T10:35:08;100723.75;;;22.70;100.00
29433;BME280;16405;53.964;13.448;2022-08-19T10:40:49;100720.91;;;22.72;100.00
29433;BME280;16405;53.964;13.448;2022-08-19T10:43:41;100722.59;;;22.73;100.00
29433;BME280;16405;53.964;13.448;2022-08-19T10:50:08;100727.53;;;22.78;100.00
29433;BME280;16405;53.964;13.448;2022-08-19T10:53:39;100726.59;;;22.87;100.00
29433;BME280;16405;53.964;13.448;2022-08-19T10:56:28;100725.28;;;22.73;100.00
29433;BME280;16405;53.964;13.448;2022-08-19T10:59:15;100729.47;;;22.85;100.00
29433;BME280;16405;53.964;13.448;2022-08-19T11:01:47;100738.97;;;22.98;100.00
29433;BME280;16405;53.964;13.448;2022-08-19T11:04:18;100725.88;;;22.94;100.00
29433;BME280;16405;53.964;13.448;2022-08-19T11:06:48;100726.25;;;23.00;100.00
29433;BME280;16405;53.964;13.448;2022-08-19T11:09:23;100727.13;;;23.18;100.00
29433;BME280;16405;53.964;13.448;2022-08-19T11:11:55;100729.88;;;23.44;100.00
29433;BME280;16405;53.964;13.448;2022-08-19T11:14:31;100730.69;;;23.81;100.00
29433;BME280;16405;53.964;13.448;2022-08-19T11:16:59;100729.09;;;24.22;100.00
29433;BME280;16405;53.964;13.448;2022-08-19T11:19:28;100722.91;;;24.64;100.00
29433;BME280;16405;53.964;13.448;2022-08-19T11:22:08;100719.59;;;24.79;100.00
29433;BME280;16405;53.964;13.448;2022-08-19T11:24:43;100728.69;;;24.94;100.00
29433;BME280;16405;53.964;13.448;2022-08-19T11:27:10;100730.06;;;24.98;100.00
29433;BME280;16405;53.964;13.448;2022-08-19T11:29:47;100732.72;;;24.90;100.00
29433;BME280;16405;53.964;13.448;2022-08-19T11:32:13;100724.66;;;24.82;100.00
29433;BME280;16405;53.964;13.448;2022-08-19T11:34:39;100730.41;;;24.95;100.00
29433;BME280;16405;53.964;13.448;2022-08-19T11:37:06;100732.44;;;25.01;100.00
29433;BME280;16405;53.964;13.448;2022-08-19T11:39:35;100739.66;;;25.01;100.00
29433;BME280;16405;53.964;13.448;2022-08-19T11:42:04;100731.44;;;25.10;100.00
29433;BME280;16405;53.964;13.448;2022-08-19T11:44:51;100732.28;;;25.19;100.00
29433;BME280;16405;53.964;13.448;2022-08-19T11:47:17;100733.84;;;25.30;100.00
29433;BME280;16405;53.964;13.448;2022-08-19T11:49:47;100723.72;;;25.56;100.00
29433;BME280;16405;53.964;13.448;2022-08-19T11:52:13;100729.13;;;25.73;100.00
29433;BME280;16405;53.964;13.448;2022-08-19T11:54:38;100736.53;;;25.95;100.00
29433;BME280;16405;53.964;13.448;2022-08-19T11:57:04;100732.81;;;25.96;98.75
29433;BME280;16405;53.964;13.448;2022-08-19T11:59:30;100739.03;;;26.05;97.71
29433;BME280;16405;53.964;13.448;2022-08-19T12:02:06;100737.03;;;25.99;94.85
29433;BME280;16405;53.964;13.448;2022-08-19T12:04:32;100734.16;;;25.68;97.18
29433;BME280;16405;53.964;13.448;2022-08-19T12:06:57;100729.47;;;25.37;96.50
29433;BME280;16405;53.964;13.448;2022-08-19T12:09:23;100728.75;;;25.18;97.75
29433;BME280;16405;53.964;13.448;2022-08-19T12:11:56;100731.41;;;25.02;97.59
29433;BME280;16405;53.964;13.448;2022-08-19T12:14:22;100717.78;;;24.95;98.10
29433;BME280;16405;53.964;13.448;2022-08-19T12:16:48;100721.28;;;24.88;99.60
29433;BME280;16405;53.964;13.448;2022-08-19T12:19:15;100711.00;;;24.83;100.00
29433;BME280;16405;53.964;13.448;2022-08-19T12:21:45;100712.34;;;24.79;100.00
29433;BME280;16405;53.964;13.448;2022-08-19T12:24:11;100704.59;;;24.76;100.00
29433;BME280;16405;53.964;13.448;2022-08-19T12:26:36;100705.78;;;24.73;100.00
29433;BME280;16405;53.964;13.448;2022-08-19T12:29:03;100709.69;;;24.95;100.00
29433;BME280;16405;53.964;13.448;2022-08-19T12:31:30;100710.03;;;25.09;100.00
29433;BME280;16405;53.964;13.448;2022-08-19T12:33:56;100698.81;;;25.22;100.00
29433;BME280;16405;53.964;13.448;2022-08-19T12:36:25;100704.19;;;25.22;100.00
29433;BME280;16405;53.964;13.448;2022-08-19T12:38:52;100709.53;;;25.05;100.00
29433;BME280;16405;53.964;13.448;2022-08-19T12:41:19;100702.09;;;24.83;100.00
29433;BME280;16405;53.964;13.448;2022-08-19T12:43:48;100703.19;;;24.55;100.00
29433;BME280;16405;53.964;13.448;2022-08-19T12:46:17;100701.84;;;24.60;100.00
29433;BME280;16405;53.964;13.448;2022-08-19T12:48:43;100706.38;;;24.51;100.00
29433;BME280;16405;53.964;13.448;2022-08-19T12:51:15;100714.81;;;24.64;100.00
29433;BME280;16405;53.964;13.448;2022-08-19T12:53:43;100720.88;;;24.66;100.00
29433;BME280;16405;53.964;13.448;2022-08-19T12:56:12;100720.94;;;24.83;100.00
29433;BME280;16405;53.964;13.448;2022-08-19T12:58:41;100721.28;;;24.80;100.00
29433;BME280;16405;53.964;13.448;2022-08-19T13:01:13;100726.16;;;24.76;100.00
29433;BME280;16405;53.964;13.448;2022-08-19T13:03:39;100729.81;;;24.67;100.00
29433;BME280;16405;53.964;13.448;2022-08-19T13:06:06;100739.03;;;24.64;100.00
29433;BME280;16405;53.964;13.448;2022-08-19T13:08:33;100748.16;;;24.63;100.00
29433;BME280;16405;53.964;13.448;2022-08-19T13:11:15;100750.28;;;24.51;100.00
29433;BME280;16405;53.964;13.448;2022-08-19T13:13:48;100753.19;;;24.58;100.00
29433;BME280;16405;53.964;13.448;2022-08-19T13:16:15;100750.50;;;24.58;100.00
29433;BME280;16405;53.964;13.448;2022-08-19T13:18:42;100749.84;;;24.72;100.00
29433;BME280;16405;53.964;13.448;2022-08-19T13:21:15;100753.59;;;24.80;100.00
29433;BME280;16405;53.964;13.448;2022-08-19T13:23:41;100732.06;;;24.80;100.00